createdAt,value
2018-05-21T00:01:35.664Z,17.70
2018-05-21T00:04:03.184Z,17.60
2018-05-21T00:06:30.712Z,17.70
2018-05-21T00:08:58.218Z,17.80
2018-05-21T00:11:25.789Z,17.90
2018-05-21T00:13:53.319Z,17.90
2018-05-21T00:16:20.886Z,18.00
2018-05-21T00:18:48.407Z,18.00
2018-05-21T00:21:15.914Z,18.10
2018-05-21T00:23:44.234Z,18.10
2018-05-21T00:26:11.807Z,18.10
2018-05-21T00:28:39.517Z,18.20
2018-05-21T00:31:08.075Z,18.20
2018-05-21T00:33:35.780Z,18.20
2018-05-21T00:36:03.464Z,18.20
2018-05-21T00:38:31.964Z,18.30
2018-05-21T00:41:19.457Z,18.30
2018-05-21T00:43:47.857Z,18.30
2018-05-21T00:46:15.556Z,18.20
2018-05-21T00:48:43.287Z,18.20
2018-05-21T00:51:11.047Z,18.20
2018-05-21T00:53:38.745Z,18.30
2018-05-21T00:56:06.488Z,18.30
2018-05-21T00:58:34.161Z,18.20
2018-05-21T01:01:01.848Z,18.30
2018-05-21T01:03:29.537Z,18.30
2018-05-21T01:05:57.278Z,18.20
2018-05-21T01:08:25.756Z,18.10
2018-05-21T01:10:53.461Z,18.10
2018-05-21T01:13:21.333Z,17.60
2018-05-21T01:15:49.084Z,17.80
2018-05-21T01:18:16.779Z,17.40
2018-05-21T01:20:44.534Z,16.70
2018-05-21T01:23:12.237Z,15.80
2018-05-21T01:25:40.680Z,14.60
2018-05-21T01:28:08.377Z,14.60
2018-05-21T01:30:36.846Z,14.40
2018-05-21T01:33:04.541Z,14.30
2018-05-21T01:35:32.328Z,14.20
2018-05-21T01:38:00.047Z,14.00
2018-05-21T01:43:30.922Z,13.80
2018-05-21T01:45:58.639Z,13.70
2018-05-21T01:48:26.328Z,13.70
2018-05-21T01:50:54.786Z,13.60
2018-05-21T01:53:22.495Z,13.60
2018-05-21T01:55:51.077Z,13.60
2018-05-21T01:58:18.774Z,13.60
2018-05-21T02:00:46.279Z,13.50
2018-05-21T02:03:13.806Z,13.50
2018-05-21T02:05:41.331Z,13.40
2018-05-21T02:08:08.867Z,13.40
2018-05-21T02:10:36.404Z,13.30
2018-05-21T02:13:03.932Z,13.30
2018-05-21T02:15:31.458Z,13.20
2018-05-21T02:17:59.062Z,13.20
2018-05-21T02:20:26.539Z,13.20
2018-05-21T02:22:54.067Z,13.10
2018-05-21T02:25:21.588Z,13.10
2018-05-21T02:27:49.115Z,13.00
2018-05-21T02:30:17.400Z,13.00
2018-05-21T02:32:44.944Z,13.00
2018-05-21T02:35:13.249Z,13.00
2018-05-21T02:37:40.765Z,13.00
2018-05-21T02:40:09.057Z,13.00
2018-05-21T02:42:41.736Z,13.00
2018-05-21T02:45:09.243Z,13.00
2018-05-21T02:47:36.789Z,13.10
2018-05-21T02:50:04.295Z,13.10
2018-05-21T02:52:31.852Z,13.10
2018-05-21T02:54:59.408Z,13.10
2018-05-21T02:57:27.683Z,13.10
2018-05-21T02:59:55.213Z,13.10
2018-05-21T03:02:22.922Z,13.00
2018-05-21T03:04:51.219Z,13.00
2018-05-21T03:07:18.739Z,13.00
2018-05-21T03:09:46.266Z,13.00
2018-05-21T03:12:13.955Z,13.00
2018-05-21T03:14:41.493Z,13.00
2018-05-21T03:17:09.002Z,12.90
2018-05-21T03:19:37.295Z,12.90
2018-05-21T03:22:23.794Z,12.80
2018-05-21T03:24:51.318Z,12.80
2018-05-21T03:27:18.813Z,12.80
2018-05-21T03:29:46.384Z,12.70
2018-05-21T03:32:13.886Z,12.70
2018-05-21T03:34:41.416Z,12.80
2018-05-21T03:37:08.941Z,12.70
2018-05-21T03:39:36.492Z,12.70
2018-05-21T03:42:04.044Z,12.70
2018-05-21T03:44:31.604Z,12.70
2018-05-21T03:46:59.886Z,12.70
2018-05-21T03:49:27.399Z,12.70
2018-05-21T03:51:55.102Z,12.70
2018-05-21T03:54:22.626Z,12.70
2018-05-21T03:56:50.147Z,12.60
2018-05-21T03:59:29.539Z,12.60
2018-05-21T04:02:09.551Z,12.70
2018-05-21T04:04:37.125Z,12.70
2018-05-21T04:07:04.652Z,12.70
2018-05-21T04:09:32.184Z,12.70
2018-05-21T04:12:05.747Z,12.70
2018-05-21T04:14:33.284Z,12.70
2018-05-21T04:17:00.808Z,12.70
2018-05-21T04:19:28.368Z,12.70
2018-05-21T04:22:05.711Z,12.70
2018-05-21T04:24:33.258Z,12.70
2018-05-21T04:27:00.789Z,12.70
2018-05-21T04:29:28.330Z,12.60
2018-05-21T04:31:55.863Z,12.60
2018-05-21T04:34:23.437Z,12.60
2018-05-21T04:36:50.982Z,12.50
2018-05-21T04:39:19.263Z,12.50
2018-05-21T04:41:47.614Z,12.40
2018-05-21T04:44:15.134Z,12.40
2018-05-21T04:46:42.684Z,12.40
2018-05-21T04:49:10.203Z,12.40
2018-05-21T04:51:37.698Z,12.40
2018-05-21T04:54:05.245Z,12.40
2018-05-21T04:56:32.742Z,12.50
2018-05-21T04:59:00.255Z,12.50
2018-05-21T05:01:27.862Z,12.50
2018-05-21T05:03:55.368Z,12.50
2018-05-21T05:06:23.666Z,12.50
2018-05-21T05:08:51.170Z,12.50
2018-05-21T05:11:18.768Z,12.50
2018-05-21T05:13:47.087Z,12.60
2018-05-21T05:16:14.648Z,12.60
2018-05-21T05:18:42.161Z,12.60
2018-05-21T05:21:14.834Z,12.60
2018-05-21T05:23:42.358Z,12.70
2018-05-21T05:26:09.879Z,12.70
2018-05-21T05:28:37.391Z,12.70
2018-05-21T05:31:04.948Z,12.70
2018-05-21T05:33:32.508Z,12.70
2018-05-21T05:36:00.095Z,12.70
2018-05-21T05:38:27.560Z,12.80
2018-05-21T05:40:55.140Z,12.90
2018-05-21T05:43:22.685Z,13.00
2018-05-21T05:45:50.250Z,13.00
2018-05-21T05:48:17.823Z,13.10
2018-05-21T05:50:50.452Z,13.20
2018-05-21T05:53:18.735Z,13.20
2018-05-21T05:55:46.257Z,13.20
2018-05-21T05:58:13.783Z,13.20
2018-05-21T06:00:55.562Z,13.30
2018-05-21T06:03:23.153Z,13.30
2018-05-21T06:05:50.680Z,13.50
2018-05-21T06:08:18.192Z,13.50
2018-05-21T06:10:45.770Z,13.60
2018-05-21T06:13:13.353Z,13.70
2018-05-21T06:15:40.903Z,13.80
2018-05-21T06:18:08.417Z,13.80
2018-05-21T06:20:35.990Z,13.90
2018-05-21T06:23:03.485Z,13.90
2018-05-21T06:25:31.019Z,14.00
2018-05-21T06:27:58.579Z,14.10
2018-05-21T06:30:27.018Z,14.00
2018-05-21T06:32:54.527Z,14.00
2018-05-21T06:35:22.034Z,14.10
2018-05-21T06:37:49.574Z,14.10
2018-05-21T06:40:17.082Z,14.10
2018-05-21T06:42:50.099Z,14.10
2018-05-21T06:45:17.607Z,14.20
2018-05-21T06:47:45.174Z,14.30
2018-05-21T06:50:12.660Z,14.40
2018-05-21T06:52:40.209Z,14.50
2018-05-21T06:55:07.765Z,14.70
2018-05-21T06:57:35.278Z,14.80
2018-05-21T07:00:02.796Z,14.90
2018-05-21T07:02:31.352Z,15.10
2018-05-21T07:04:58.867Z,15.10
2018-05-21T07:07:26.404Z,15.20
2018-05-21T07:09:53.936Z,15.40
2018-05-21T07:12:26.623Z,15.50
2018-05-21T07:14:54.168Z,15.60
2018-05-21T07:17:21.674Z,15.70
2018-05-21T07:19:49.232Z,15.80
2018-05-21T07:22:16.790Z,15.90
2018-05-21T07:24:45.075Z,16.40
2018-05-21T07:27:12.580Z,16.40
2018-05-21T07:29:40.123Z,16.70
2018-05-21T07:32:07.651Z,16.90
2018-05-21T07:34:35.148Z,17.10
2018-05-21T07:37:02.680Z,17.20
2018-05-21T07:39:30.192Z,17.20
2018-05-21T07:41:57.738Z,17.20
2018-05-21T07:44:26.036Z,17.40
2018-05-21T07:46:53.623Z,17.30
2018-05-21T07:49:21.135Z,17.50
2018-05-21T07:51:48.662Z,17.70
2018-05-21T07:54:16.199Z,17.80
2018-05-21T07:56:43.743Z,17.90
2018-05-21T07:59:11.252Z,18.10
2018-05-21T08:01:38.761Z,18.30
2018-05-21T08:04:06.321Z,18.40
2018-05-21T08:06:33.917Z,18.60
2018-05-21T08:09:01.422Z,19.00
2018-05-21T08:11:33.942Z,19.10
2018-05-21T08:14:01.488Z,19.10
2018-05-21T08:16:28.992Z,19.20
2018-05-21T08:18:56.535Z,19.30
2018-05-21T08:21:24.072Z,19.60
2018-05-21T08:23:51.625Z,19.60
2018-05-21T08:26:19.126Z,19.60
2018-05-21T08:28:46.721Z,19.70
2018-05-21T08:31:14.458Z,19.80
2018-05-21T08:33:42.810Z,19.60
2018-05-21T08:36:10.341Z,19.60
2018-05-21T08:38:37.867Z,19.60
2018-05-21T08:41:05.544Z,19.70
2018-05-21T08:43:33.074Z,19.70
2018-05-21T08:46:00.630Z,19.60
2018-05-21T08:48:28.981Z,19.80
2018-05-21T08:50:56.544Z,19.80
2018-05-21T08:53:24.052Z,19.90
2018-05-21T08:55:52.355Z,20.30
2018-05-21T08:58:19.875Z,20.30
2018-05-21T09:00:52.526Z,20.40
2018-05-21T09:03:20.124Z,20.40
2018-05-21T09:05:47.633Z,20.30
2018-05-21T09:08:15.147Z,20.50
2018-05-21T09:10:42.695Z,20.50
2018-05-21T09:13:10.248Z,19.80
2018-05-21T09:15:37.762Z,19.50
2018-05-21T09:18:05.294Z,19.50
2018-05-21T09:20:32.801Z,19.80
2018-05-21T09:23:00.312Z,20.10
2018-05-21T09:25:27.836Z,20.30
2018-05-21T09:27:55.380Z,20.60
2018-05-21T09:30:22.878Z,20.90
2018-05-21T09:32:50.393Z,21.00
2018-05-21T09:35:17.895Z,21.10
2018-05-21T09:37:45.518Z,21.50
2018-05-21T09:40:13.030Z,21.70
2018-05-21T09:42:40.581Z,22.00
2018-05-21T09:45:08.104Z,22.30
2018-05-21T09:47:35.616Z,22.80
2018-05-21T09:50:03.188Z,23.00
2018-05-21T09:52:30.726Z,23.20
2018-05-21T09:54:58.236Z,23.30
2018-05-21T09:57:25.772Z,23.20
2018-05-21T09:59:54.052Z,23.30
2018-05-21T10:02:21.555Z,23.30
2018-05-21T10:04:49.127Z,23.40
2018-05-21T10:07:16.687Z,23.40
2018-05-21T10:09:44.253Z,23.50
2018-05-21T10:12:11.875Z,23.50
2018-05-21T10:14:39.325Z,23.40
2018-05-21T10:17:06.834Z,23.50
2018-05-21T10:19:34.427Z,23.60
2018-05-21T10:22:02.880Z,23.70
2018-05-21T10:24:30.403Z,23.70
2018-05-21T10:26:57.964Z,23.70
2018-05-21T10:29:25.537Z,23.80
2018-05-21T10:31:53.044Z,24.00
2018-05-21T10:34:20.605Z,24.10
2018-05-21T10:36:48.153Z,24.10
2018-05-21T10:39:15.716Z,24.30
2018-05-21T10:41:57.552Z,24.30
2018-05-21T10:44:25.086Z,24.30
2018-05-21T10:46:52.614Z,24.40
2018-05-21T10:49:20.944Z,24.40
2018-05-21T10:51:48.566Z,24.40
2018-05-21T10:54:16.094Z,24.30
2018-05-21T10:56:43.614Z,24.40
2018-05-21T10:59:11.162Z,24.40
2018-05-21T11:01:38.712Z,24.50
2018-05-21T11:04:06.273Z,24.50
2018-05-21T11:06:33.777Z,24.60
2018-05-21T11:09:01.330Z,24.60
2018-05-21T11:11:28.862Z,24.60
2018-05-21T11:13:56.369Z,24.60
2018-05-21T11:16:23.931Z,24.60
2018-05-21T11:18:52.280Z,24.80
2018-05-21T11:21:19.842Z,24.80
2018-05-21T11:23:47.343Z,25.10
2018-05-21T11:26:15.670Z,25.00
2018-05-21T11:28:43.204Z,25.00
2018-05-21T11:31:10.712Z,25.20
2018-05-21T11:33:38.258Z,25.40
2018-05-21T11:36:05.810Z,25.40
2018-05-21T11:38:33.402Z,25.50
2018-05-21T11:41:01.683Z,25.60
2018-05-21T11:43:29.226Z,25.60
2018-05-21T11:45:56.731Z,25.60
2018-05-21T11:48:24.284Z,25.50
2018-05-21T11:50:51.816Z,25.50
2018-05-21T11:53:19.380Z,25.50
2018-05-21T11:55:46.915Z,25.50
2018-05-21T11:58:14.445Z,25.50
2018-05-21T12:00:41.965Z,25.70
2018-05-21T12:03:09.519Z,25.90
2018-05-21T12:05:37.078Z,26.00
2018-05-21T12:08:04.607Z,26.10
2018-05-21T12:10:32.119Z,26.10
2018-05-21T12:12:59.695Z,26.30
2018-05-21T12:15:27.216Z,26.50
2018-05-21T12:17:54.736Z,26.80
2018-05-21T12:20:22.313Z,26.90
2018-05-21T12:25:42.724Z,27.40
2018-05-21T12:28:11.034Z,27.00
2018-05-21T12:30:38.547Z,27.00
2018-05-21T12:33:06.096Z,27.00
2018-05-21T12:35:33.616Z,27.00
2018-05-21T12:38:01.138Z,26.90
2018-05-21T12:40:28.671Z,26.50
2018-05-21T12:42:56.230Z,26.30
2018-05-21T12:45:23.755Z,26.40
2018-05-21T12:47:51.319Z,26.70
2018-05-21T12:50:18.837Z,26.80
2018-05-21T12:52:47.185Z,26.60
2018-05-21T12:55:14.716Z,26.60
2018-05-21T12:57:42.240Z,26.30
2018-05-21T13:00:09.764Z,26.50
2018-05-21T13:02:37.359Z,26.50
2018-05-21T13:05:04.906Z,26.40
2018-05-21T13:07:32.460Z,26.70
2018-05-21T13:09:59.996Z,26.50
2018-05-21T13:12:32.677Z,26.60
2018-05-21T13:15:00.207Z,26.60
2018-05-21T13:17:27.761Z,26.40
2018-05-21T13:19:55.281Z,26.40
2018-05-21T13:22:32.662Z,26.60
2018-05-21T13:25:00.168Z,26.70
2018-05-21T13:27:27.697Z,26.80
2018-05-21T13:29:55.239Z,26.80
2018-05-21T13:32:22.758Z,26.60
2018-05-21T13:34:50.304Z,26.40
2018-05-21T13:37:17.917Z,26.20
2018-05-21T13:39:45.472Z,26.10
2018-05-21T13:42:13.748Z,25.70
2018-05-21T13:44:41.489Z,25.70
2018-05-21T13:47:09.031Z,25.40
2018-05-21T13:49:36.852Z,25.40
2018-05-21T13:52:04.418Z,25.40
2018-05-21T13:54:31.963Z,25.30
2018-05-21T13:56:59.483Z,25.60
2018-05-21T13:59:27.011Z,25.60
2018-05-21T14:01:54.518Z,25.40
2018-05-21T14:04:22.826Z,25.20
2018-05-21T14:06:50.478Z,25.20
2018-05-21T14:09:17.950Z,25.20
2018-05-21T14:11:45.456Z,24.90
2018-05-21T14:14:12.992Z,24.70
2018-05-21T14:16:40.486Z,24.80
2018-05-21T14:19:08.013Z,24.80
2018-05-21T14:21:35.699Z,24.80
2018-05-21T14:24:03.158Z,24.70
2018-05-21T14:26:30.673Z,24.80
2018-05-21T14:28:58.242Z,24.90
2018-05-21T14:31:25.757Z,24.60
2018-05-21T14:33:53.303Z,24.70
2018-05-21T14:36:21.690Z,25.00
2018-05-21T14:38:49.968Z,25.00
2018-05-21T14:41:17.728Z,25.00
2018-05-21T14:43:46.047Z,24.90
2018-05-21T14:46:13.562Z,24.90
2018-05-21T14:48:41.863Z,25.20
2018-05-21T14:51:09.395Z,25.20
2018-05-21T14:53:36.957Z,25.30
2018-05-21T14:56:05.236Z,25.50
2018-05-21T14:58:32.758Z,25.50
2018-05-21T15:01:19.711Z,25.40
2018-05-21T15:03:47.264Z,25.40
2018-05-21T15:06:14.794Z,25.40
2018-05-21T15:08:42.308Z,25.40
2018-05-21T15:11:09.901Z,25.40
2018-05-21T15:13:37.423Z,25.40
2018-05-21T15:16:04.955Z,25.30
2018-05-21T15:18:32.443Z,25.30
2018-05-21T15:21:09.887Z,25.10
2018-05-21T15:23:37.448Z,25.00
2018-05-21T15:26:04.959Z,25.00
2018-05-21T15:28:32.563Z,25.00
2018-05-21T15:31:14.375Z,24.80
2018-05-21T15:33:41.920Z,24.80
2018-05-21T15:36:09.486Z,24.80
2018-05-21T15:38:37.767Z,24.80
2018-05-21T15:41:05.314Z,24.80
2018-05-21T15:43:33.655Z,24.80
2018-05-21T15:46:01.182Z,24.80
2018-05-21T15:48:28.699Z,25.00
2018-05-21T15:51:01.174Z,25.00
2018-05-21T15:53:29.513Z,24.80
2018-05-21T15:55:57.048Z,24.70
2018-05-21T15:58:24.612Z,24.80
2018-05-21T16:03:45.491Z,24.90
2018-05-21T16:06:13.039Z,24.80
2018-05-21T16:08:40.591Z,24.90
2018-05-21T16:11:08.150Z,24.80
2018-05-21T16:13:35.691Z,24.60
2018-05-21T16:16:03.218Z,24.50
2018-05-21T16:18:30.748Z,24.20
2018-05-21T16:20:58.305Z,23.90
2018-05-21T16:23:25.941Z,23.70
2018-05-21T16:25:53.441Z,23.50
2018-05-21T16:28:20.987Z,23.50
2018-05-21T16:30:48.528Z,23.50
2018-05-21T16:33:16.910Z,23.30
2018-05-21T16:35:44.437Z,23.20
2018-05-21T16:38:11.975Z,23.20
2018-05-21T16:40:39.484Z,23.20
2018-05-21T16:43:07.016Z,23.20
2018-05-21T16:45:34.550Z,23.20
2018-05-21T16:48:02.052Z,23.20
2018-05-21T16:50:29.582Z,23.00
2018-05-21T16:52:57.111Z,22.90
2018-05-21T16:55:24.710Z,22.80
2018-05-21T16:57:52.251Z,22.80
2018-05-21T17:00:19.791Z,22.70
2018-05-21T17:02:47.288Z,22.60
2018-05-21T17:05:14.887Z,22.60
2018-05-21T17:07:42.386Z,22.50
2018-05-21T17:10:09.936Z,22.50
2018-05-21T17:12:37.472Z,22.50
2018-05-21T17:15:04.980Z,22.40
2018-05-21T17:17:32.514Z,22.40
2018-05-21T17:20:00.014Z,22.40
2018-05-21T17:22:27.578Z,22.30
2018-05-21T17:24:55.880Z,22.10
2018-05-21T17:27:23.399Z,22.10
2018-05-21T17:29:50.929Z,22.10
2018-05-21T17:32:18.496Z,22.10
2018-05-21T17:34:46.009Z,22.00
2018-05-21T17:37:13.502Z,21.90
2018-05-21T17:39:41.079Z,21.80
2018-05-21T17:42:08.588Z,21.80
2018-05-21T17:44:36.099Z,21.70
2018-05-21T17:47:03.616Z,21.70
2018-05-21T17:49:31.503Z,21.80
2018-05-21T17:51:59.012Z,21.70
2018-05-21T17:54:27.316Z,21.70
2018-05-21T17:56:54.847Z,21.70
2018-05-21T17:59:22.391Z,21.70
2018-05-21T18:01:49.937Z,21.60
2018-05-21T18:04:17.443Z,21.60
2018-05-21T18:06:45.022Z,21.60
2018-05-21T18:09:12.539Z,21.50
2018-05-21T18:11:40.067Z,21.50
2018-05-21T18:14:07.604Z,21.50
2018-05-21T18:16:35.139Z,21.50
2018-05-21T18:19:02.676Z,21.40
2018-05-21T18:21:30.397Z,21.30
2018-05-21T18:23:57.792Z,21.30
2018-05-21T18:26:26.094Z,21.30
2018-05-21T18:28:53.615Z,21.30
2018-05-21T18:31:21.126Z,21.30
2018-05-21T18:33:48.810Z,21.30
2018-05-21T18:36:16.356Z,21.30
2018-05-21T18:38:43.865Z,21.30
2018-05-21T18:41:12.179Z,21.10
2018-05-21T18:43:39.697Z,21.10
2018-05-21T18:46:07.209Z,20.90
2018-05-21T18:48:34.738Z,20.90
2018-05-21T18:51:02.270Z,20.90
2018-05-21T18:53:30.596Z,20.60
2018-05-21T18:55:58.144Z,20.60
2018-05-21T18:58:25.658Z,20.50
2018-05-21T19:00:53.191Z,20.50
2018-05-21T19:03:20.733Z,20.50
2018-05-21T19:05:48.258Z,20.50
2018-05-21T19:08:15.762Z,20.40
2018-05-21T19:10:43.380Z,20.30
2018-05-21T19:13:10.905Z,20.20
2018-05-21T19:15:38.418Z,20.10
2018-05-21T19:18:05.971Z,20.10
2018-05-21T19:20:33.510Z,20.00
2018-05-21T19:23:01.045Z,19.90
2018-05-21T19:25:28.608Z,19.90
2018-05-21T19:27:56.127Z,19.80
2018-05-21T19:30:23.664Z,19.80
2018-05-21T19:32:51.342Z,19.70
2018-05-21T19:35:18.864Z,19.60
2018-05-21T19:37:46.436Z,19.50
2018-05-21T19:40:13.983Z,19.50
2018-05-21T19:42:41.735Z,19.40
2018-05-21T19:45:09.262Z,19.20
2018-05-21T19:47:36.786Z,19.10
2018-05-21T19:50:04.316Z,19.00
2018-05-21T19:52:31.864Z,18.80
2018-05-21T19:54:59.394Z,18.80
2018-05-21T19:57:26.911Z,18.80
2018-05-21T19:59:55.516Z,18.80
2018-05-21T20:02:28.216Z,18.70
2018-05-21T20:04:55.763Z,18.60
2018-05-21T20:07:23.308Z,18.50
2018-05-21T20:09:50.900Z,18.50
2018-05-21T20:12:18.587Z,18.40
2018-05-21T20:14:46.111Z,18.30
2018-05-21T20:17:13.658Z,18.30
2018-05-21T20:19:41.175Z,18.30
2018-05-21T20:22:08.697Z,18.30
2018-05-21T20:24:36.243Z,18.20
2018-05-21T20:27:03.806Z,18.10
2018-05-21T20:29:31.321Z,18.00
2018-05-21T20:32:04.082Z,18.00
2018-05-21T20:34:31.612Z,18.00
2018-05-21T20:36:59.134Z,18.00
2018-05-21T20:39:26.702Z,17.90
2018-05-21T20:41:54.303Z,17.90
2018-05-21T20:44:22.583Z,17.80
2018-05-21T20:46:50.084Z,17.80
2018-05-21T20:49:17.615Z,17.70
2018-05-21T20:51:45.147Z,17.60
2018-05-21T20:54:12.719Z,17.60
2018-05-21T20:56:40.272Z,17.50
2018-05-21T20:59:07.780Z,17.50
2018-05-21T21:01:35.319Z,17.40
2018-05-21T21:04:02.832Z,17.40
2018-05-21T21:06:30.381Z,17.30
2018-05-21T21:08:57.921Z,17.30
2018-05-21T21:11:25.431Z,17.30
2018-05-21T21:13:53.056Z,17.30
2018-05-21T21:16:20.606Z,17.40
2018-05-21T21:18:48.143Z,17.40
2018-05-21T21:21:15.662Z,17.40
2018-05-21T21:23:43.214Z,17.40
2018-05-21T21:26:11.490Z,17.30
2018-05-21T21:28:39.009Z,17.30
2018-05-21T21:31:06.526Z,17.30
2018-05-21T21:33:34.067Z,17.20
2018-05-21T21:36:02.390Z,17.00
2018-05-21T21:38:29.894Z,17.00
2018-05-21T21:40:57.460Z,17.00
2018-05-21T21:43:25.754Z,16.90
2018-05-21T21:45:53.524Z,16.90
2018-05-21T21:48:21.135Z,16.80
2018-05-21T21:50:48.712Z,16.80
2018-05-21T21:53:16.235Z,16.80
2018-05-21T21:55:43.875Z,16.70
2018-05-21T21:58:11.420Z,16.60
2018-05-21T22:00:38.946Z,16.50
2018-05-21T22:03:11.625Z,16.30
2018-05-21T22:05:39.927Z,16.40
2018-05-21T22:08:07.466Z,16.30
2018-05-21T22:10:34.988Z,16.50
2018-05-21T22:13:02.514Z,16.50
2018-05-21T22:15:30.020Z,16.40
2018-05-21T22:17:57.537Z,16.40
2018-05-21T22:20:25.059Z,16.50
2018-05-21T22:22:52.804Z,16.30
2018-05-21T22:25:20.346Z,16.30
2018-05-21T22:27:47.960Z,16.30
2018-05-21T22:30:15.507Z,16.10
2018-05-21T22:32:43.236Z,16.00
2018-05-21T22:35:10.783Z,15.90
2018-05-21T22:37:38.295Z,15.80
2018-05-21T22:40:05.824Z,15.70
2018-05-21T22:42:33.909Z,15.70
2018-05-21T22:45:02.258Z,15.70
2018-05-21T22:47:29.763Z,15.70
2018-05-21T22:49:57.289Z,15.70
2018-05-21T22:52:24.813Z,15.70
2018-05-21T22:54:52.336Z,15.50
2018-05-21T22:57:19.854Z,15.40
2018-05-21T22:59:47.383Z,15.30
2018-05-21T23:02:14.908Z,15.30
2018-05-21T23:04:42.414Z,15.30
2018-05-21T23:07:10.007Z,15.20
2018-05-21T23:09:37.511Z,15.10
2018-05-21T23:12:05.070Z,15.00
2018-05-21T23:14:32.649Z,15.10
2018-05-21T23:17:00.147Z,15.10
2018-05-21T23:19:28.471Z,15.10
2018-05-21T23:21:55.975Z,15.10
2018-05-21T23:24:23.546Z,15.10
2018-05-21T23:26:51.111Z,15.10
2018-05-21T23:29:18.659Z,15.10
2018-05-21T23:31:46.191Z,15.20
2018-05-21T23:34:13.704Z,15.30
2018-05-21T23:36:41.236Z,15.30
2018-05-21T23:39:08.745Z,15.40
2018-05-21T23:41:36.263Z,15.40
2018-05-21T23:44:03.814Z,15.30
2018-05-21T23:46:31.324Z,15.30
2018-05-21T23:48:58.836Z,15.30
2018-05-21T23:51:26.401Z,15.30
2018-05-21T23:53:53.913Z,15.20
2018-05-21T23:56:21.415Z,15.20
2018-05-21T23:58:48.962Z,15.10
